createdAt,value
2022-09-15T00:01:22.353Z,15.70
2022-09-15T00:03:51.868Z,15.70
2022-09-15T00:06:19.137Z,15.70
2022-09-15T00:08:48.462Z,15.70
2022-09-15T00:11:27.176Z,15.70
2022-09-15T00:13:55.078Z,15.70
2022-09-15T00:16:29.095Z,15.70
2022-09-15T00:18:55.914Z,15.70
2022-09-15T00:21:32.063Z,15.60
2022-09-15T00:24:00.354Z,15.60
2022-09-15T00:26:31.458Z,15.60
2022-09-15T00:28:58.836Z,15.60
2022-09-15T00:31:27.568Z,15.60
2022-09-15T00:33:56.769Z,15.60
2022-09-15T00:36:28.774Z,15.60
2022-09-15T00:38:55.967Z,15.60
2022-09-15T00:41:24.502Z,15.50
2022-09-15T00:44:12.314Z,15.50
2022-09-15T00:46:58.695Z,15.50
2022-09-15T00:49:36.891Z,15.50
2022-09-15T00:52:08.846Z,15.50
2022-09-15T00:54:41.886Z,15.50
2022-09-15T00:57:21.304Z,15.50
2022-09-15T00:59:52.232Z,15.40
2022-09-15T01:02:27.629Z,15.40
2022-09-15T01:04:58.388Z,15.40
2022-09-15T01:07:51.470Z,15.40
2022-09-15T01:10:25.782Z,15.30
2022-09-15T01:12:57.031Z,15.30
2022-09-15T01:15:29.710Z,15.30
2022-09-15T01:18:37.428Z,15.30
2022-09-15T01:21:06.337Z,15.30
2022-09-15T01:23:33.004Z,15.30
2022-09-15T01:26:18.193Z,15.20
2022-09-15T01:29:09.754Z,15.20
2022-09-15T01:32:28.406Z,15.20
2022-09-15T01:35:02.912Z,15.20
2022-09-15T01:37:32.495Z,15.20
2022-09-15T01:40:01.900Z,15.10
2022-09-15T01:42:33.386Z,15.10
2022-09-15T01:45:19.116Z,15.10
2022-09-15T01:47:49.455Z,15.10
2022-09-15T01:50:20.804Z,15.10
2022-09-15T01:52:57.032Z,15.10
2022-09-15T01:55:31.944Z,15.10
2022-09-15T01:57:59.365Z,15.10
2022-09-15T02:00:32.038Z,15.00
2022-09-15T02:03:04.230Z,15.00
2022-09-15T02:05:45.012Z,15.00
2022-09-15T02:08:30.851Z,15.00
2022-09-15T02:11:11.664Z,15.10
2022-09-15T02:14:13.371Z,15.10
2022-09-15T02:16:44.029Z,15.10
2022-09-15T02:19:32.850Z,15.10
2022-09-15T02:22:23.540Z,15.10
2022-09-15T02:25:00.180Z,15.10
2022-09-15T02:27:32.203Z,15.10
2022-09-15T02:30:06.067Z,15.00
2022-09-15T02:32:34.954Z,15.00
2022-09-15T02:35:09.933Z,15.10
2022-09-15T02:37:39.391Z,15.10
2022-09-15T02:40:09.266Z,15.10
2022-09-15T02:42:36.179Z,15.10
2022-09-15T02:45:06.622Z,15.10
2022-09-15T02:47:33.362Z,15.00
2022-09-15T02:50:02.552Z,15.00
2022-09-15T02:52:29.420Z,15.00
2022-09-15T02:54:59.250Z,15.00
2022-09-15T02:57:28.595Z,14.90
2022-09-15T03:00:13.849Z,14.90
2022-09-15T03:02:42.403Z,14.90
2022-09-15T03:05:13.592Z,14.80
2022-09-15T03:07:43.024Z,14.90
2022-09-15T03:10:12.036Z,14.80
2022-09-15T03:12:39.876Z,14.80
2022-09-15T03:15:11.257Z,14.80
2022-09-15T03:17:41.637Z,14.80
2022-09-15T03:20:10.219Z,14.80
2022-09-15T03:22:40.906Z,14.80
2022-09-15T03:25:13.410Z,14.70
2022-09-15T03:27:43.170Z,14.70
2022-09-15T03:30:11.334Z,14.70
2022-09-15T03:32:38.102Z,14.70
2022-09-15T03:35:06.108Z,14.70
2022-09-15T03:37:33.360Z,14.70
2022-09-15T03:40:03.759Z,14.60
2022-09-15T03:42:30.741Z,14.60
2022-09-15T03:44:59.581Z,14.60
2022-09-15T03:47:26.342Z,14.60
2022-09-15T03:49:55.550Z,14.60
2022-09-15T03:52:31.381Z,14.60
2022-09-15T03:54:58.302Z,14.60
2022-09-15T03:57:25.067Z,14.60
2022-09-15T03:59:51.808Z,14.60
2022-09-15T04:02:19.200Z,14.60
2022-09-15T04:04:45.980Z,14.60
2022-09-15T04:07:12.698Z,14.60
2022-09-15T04:09:41.868Z,14.60
2022-09-15T04:12:11.138Z,14.50
2022-09-15T04:14:37.915Z,14.50
2022-09-15T04:17:04.796Z,14.50
2022-09-15T04:19:31.483Z,14.50
2022-09-15T04:22:02.925Z,14.50
2022-09-15T04:24:29.688Z,14.50
2022-09-15T04:26:56.461Z,14.50
2022-09-15T04:29:23.336Z,14.50
2022-09-15T04:31:50.458Z,14.50
2022-09-15T04:34:17.289Z,14.40
2022-09-15T04:36:44.124Z,14.40
2022-09-15T04:39:10.884Z,14.40
2022-09-15T04:41:39.940Z,14.40
2022-09-15T04:44:11.644Z,14.40
2022-09-15T04:46:38.465Z,14.40
2022-09-15T04:49:05.317Z,14.30
2022-09-15T04:51:32.114Z,14.30
2022-09-15T04:54:01.497Z,14.30
2022-09-15T04:56:33.591Z,14.30
2022-09-15T04:59:04.224Z,14.30
2022-09-15T05:01:33.905Z,14.20
2022-09-15T05:04:04.012Z,14.30
2022-09-15T05:06:31.153Z,14.30
2022-09-15T05:09:07.673Z,14.20
2022-09-15T05:11:41.146Z,14.20
2022-09-15T05:14:09.538Z,14.30
2022-09-15T05:16:41.105Z,14.20
2022-09-15T05:19:09.985Z,14.20
2022-09-15T05:21:36.744Z,14.20
2022-09-15T05:24:03.575Z,14.20
2022-09-15T05:26:30.539Z,14.20
2022-09-15T05:28:58.096Z,14.20
2022-09-15T05:31:27.684Z,14.20
2022-09-15T05:33:54.820Z,14.20
2022-09-15T05:36:25.024Z,14.20
2022-09-15T05:38:53.342Z,14.20
2022-09-15T05:41:20.834Z,14.20
2022-09-15T05:43:50.853Z,14.20
2022-09-15T05:46:19.458Z,14.20
2022-09-15T05:48:46.582Z,14.20
2022-09-15T05:51:14.359Z,14.20
2022-09-15T05:53:41.317Z,14.20
2022-09-15T05:56:12.033Z,14.20
2022-09-15T05:58:44.586Z,14.20
2022-09-15T06:01:28.360Z,14.20
2022-09-15T06:03:56.582Z,14.20
2022-09-15T06:06:26.368Z,14.30
2022-09-15T06:08:58.334Z,14.30
2022-09-15T06:11:31.166Z,14.30
2022-09-15T06:14:03.226Z,14.30
2022-09-15T06:16:34.774Z,14.30
2022-09-15T06:19:05.099Z,14.40
2022-09-15T06:21:33.085Z,14.50
2022-09-15T06:24:03.428Z,14.60
2022-09-15T06:26:30.398Z,14.60
2022-09-15T06:29:06.326Z,14.70
2022-09-15T06:31:33.914Z,14.80
2022-09-15T06:34:01.288Z,14.80
2022-09-15T06:36:31.013Z,14.90
2022-09-15T06:38:58.871Z,14.90
2022-09-15T06:41:26.331Z,14.90
2022-09-15T06:43:55.880Z,15.00
2022-09-15T06:46:28.300Z,15.00
2022-09-15T06:53:08.085Z,15.00
2022-09-15T06:55:37.707Z,15.00
2022-09-15T06:58:04.533Z,15.10
2022-09-15T07:00:33.947Z,15.20
2022-09-15T07:03:03.134Z,15.20
2022-09-15T07:05:30.170Z,15.30
2022-09-15T07:07:56.925Z,15.40
2022-09-15T07:10:23.808Z,15.40
2022-09-15T07:12:50.669Z,15.40
2022-09-15T07:15:17.524Z,15.40
2022-09-15T07:17:44.309Z,15.40
2022-09-15T07:20:13.568Z,15.50
2022-09-15T07:22:40.427Z,15.50
2022-09-15T07:25:07.589Z,15.50
2022-09-15T07:27:36.433Z,15.60
2022-09-15T07:30:08.618Z,15.60
2022-09-15T07:32:35.619Z,15.70
2022-09-15T07:35:02.760Z,15.70
2022-09-15T07:37:29.635Z,15.80
2022-09-15T07:39:56.482Z,15.80
2022-09-15T07:42:25.886Z,15.80
2022-09-15T07:44:52.695Z,15.70
2022-09-15T07:47:19.467Z,15.70
2022-09-15T07:49:50.011Z,15.70
2022-09-15T07:52:16.910Z,15.60
2022-09-15T07:54:43.646Z,15.70
2022-09-15T07:57:10.434Z,15.60
2022-09-15T07:59:41.015Z,15.70
2022-09-15T08:02:18.310Z,15.80
2022-09-15T08:04:45.275Z,15.80
2022-09-15T08:07:13.021Z,15.80
2022-09-15T08:09:40.381Z,15.90
2022-09-15T08:12:10.444Z,16.00
2022-09-15T08:14:37.797Z,16.00
2022-09-15T08:17:09.379Z,16.10
2022-09-15T08:19:40.380Z,16.20
2022-09-15T08:22:07.187Z,16.50
2022-09-15T08:24:34.583Z,16.60
2022-09-15T08:27:01.318Z,16.70
2022-09-15T08:29:30.440Z,16.80
2022-09-15T08:31:57.182Z,16.80
2022-09-15T08:34:26.160Z,16.80
2022-09-15T08:36:55.656Z,16.80
2022-09-15T08:39:22.734Z,16.70
2022-09-15T08:41:53.289Z,16.70
2022-09-15T08:44:44.648Z,16.60
2022-09-15T08:47:25.790Z,16.60
2022-09-15T08:50:01.087Z,16.70
2022-09-15T08:52:33.146Z,16.60
2022-09-15T08:55:12.025Z,16.70
2022-09-15T08:57:44.754Z,16.70
2022-09-15T09:00:16.725Z,16.70
2022-09-15T09:03:05.324Z,16.80
2022-09-15T09:05:47.231Z,16.70
2022-09-15T09:08:23.029Z,16.70
2022-09-15T09:10:54.748Z,16.60
2022-09-15T09:13:42.031Z,16.60
2022-09-15T09:17:04.718Z,16.60
2022-09-15T09:19:53.786Z,16.50
2022-09-15T09:22:27.666Z,16.50
2022-09-15T09:24:58.191Z,16.40
2022-09-15T09:27:35.627Z,16.50
2022-09-15T09:30:19.632Z,16.50
2022-09-15T09:32:52.571Z,16.60
2022-09-15T09:35:34.573Z,16.70
2022-09-15T09:38:07.028Z,16.70
2022-09-15T09:40:37.237Z,16.80
2022-09-15T09:43:06.214Z,16.90
2022-09-15T09:45:35.642Z,16.90
2022-09-15T09:48:19.031Z,17.00
2022-09-15T09:50:49.604Z,17.10
2022-09-15T09:53:31.017Z,17.10
2022-09-15T09:56:23.513Z,17.20
2022-09-15T09:58:50.835Z,17.30
2022-09-15T10:01:22.691Z,17.40
2022-09-15T10:03:49.668Z,17.60
2022-09-15T10:06:20.556Z,17.70
2022-09-15T10:08:58.848Z,17.80
2022-09-15T10:11:41.662Z,18.00
2022-09-15T10:14:19.811Z,18.10
2022-09-15T10:17:06.039Z,18.20
2022-09-15T10:19:43.230Z,18.20
2022-09-15T10:22:30.039Z,18.10
2022-09-15T10:25:01.054Z,18.20
2022-09-15T10:27:36.140Z,18.20
2022-09-15T10:30:15.323Z,18.40
2022-09-15T10:32:43.251Z,18.40
2022-09-15T10:35:20.051Z,18.40
2022-09-15T10:38:20.166Z,18.60
2022-09-15T10:41:05.593Z,18.60
2022-09-15T10:44:02.063Z,18.80
2022-09-15T10:46:43.997Z,18.80
2022-09-15T10:49:48.525Z,18.90
2022-09-15T10:52:24.175Z,19.10
2022-09-15T10:55:22.092Z,19.20
2022-09-15T10:58:33.445Z,19.10
2022-09-15T11:01:14.801Z,19.10
2022-09-15T11:03:47.469Z,18.90
2022-09-15T11:06:39.031Z,18.80
2022-09-15T11:09:11.977Z,18.60
2022-09-15T11:11:47.348Z,18.50
2022-09-15T11:14:26.078Z,18.40
2022-09-15T11:17:11.118Z,18.20
2022-09-15T11:20:11.039Z,18.10
2022-09-15T11:22:49.625Z,18.00
2022-09-15T11:25:26.346Z,17.90
2022-09-15T11:28:19.881Z,17.90
2022-09-15T11:30:58.257Z,17.90
2022-09-15T11:33:37.779Z,18.00
2022-09-15T11:36:15.777Z,18.00
2022-09-15T11:38:48.299Z,18.00
2022-09-15T11:41:17.849Z,18.10
2022-09-15T11:43:54.060Z,18.10
2022-09-15T11:46:35.510Z,18.20
2022-09-15T11:49:13.908Z,18.20
2022-09-15T11:51:50.711Z,18.30
2022-09-15T11:54:51.129Z,18.30
2022-09-15T11:57:27.713Z,18.30
2022-09-15T12:00:20.810Z,18.20
2022-09-15T12:03:00.761Z,18.10
2022-09-15T12:05:35.177Z,18.00
2022-09-15T12:08:15.369Z,18.00
2022-09-15T12:10:52.215Z,18.10
2022-09-15T12:13:23.255Z,18.00
2022-09-15T12:15:50.651Z,17.90
2022-09-15T12:18:48.788Z,17.90
2022-09-15T12:21:18.501Z,17.80
2022-09-15T12:24:00.082Z,17.80
2022-09-15T12:26:32.421Z,17.70
2022-09-15T12:29:23.419Z,17.70
2022-09-15T12:32:24.664Z,17.60
2022-09-15T12:34:57.517Z,17.50
2022-09-15T12:37:26.120Z,17.60
2022-09-15T12:39:54.062Z,17.60
2022-09-15T12:42:23.184Z,17.70
2022-09-15T12:44:52.232Z,17.80
2022-09-15T12:47:39.207Z,17.80
2022-09-15T12:50:24.158Z,17.90
2022-09-15T12:52:54.048Z,17.90
2022-09-15T12:55:36.376Z,17.90
2022-09-15T12:58:15.799Z,17.90
2022-09-15T13:01:07.170Z,18.00
2022-09-15T13:06:24.169Z,18.10
2022-09-15T13:09:05.839Z,18.20
2022-09-15T13:11:42.576Z,18.30
2022-09-15T13:14:41.877Z,18.30
2022-09-15T13:17:19.969Z,18.30
2022-09-15T13:19:59.936Z,18.40
2022-09-15T13:22:31.137Z,18.50
2022-09-15T13:25:03.730Z,18.50
2022-09-15T13:27:36.386Z,18.50
2022-09-15T13:30:03.814Z,18.40
2022-09-15T13:32:59.025Z,18.40
2022-09-15T13:35:49.039Z,18.30
2022-09-15T13:38:50.308Z,18.30
2022-09-15T13:41:56.340Z,18.40
2022-09-15T13:44:54.847Z,18.50
2022-09-15T13:47:24.361Z,18.50
2022-09-15T13:50:18.523Z,18.40
2022-09-15T13:52:56.245Z,18.30
2022-09-15T13:55:27.852Z,18.20
2022-09-15T14:00:58.760Z,18.20
2022-09-15T14:03:46.941Z,18.30
2022-09-15T14:06:33.647Z,18.30
2022-09-15T14:09:06.359Z,18.30
2022-09-15T14:11:40.644Z,18.40
2022-09-15T14:14:28.960Z,18.60
2022-09-15T14:16:58.163Z,18.70
2022-09-15T14:19:33.704Z,18.70
2022-09-15T14:22:16.114Z,18.70
2022-09-15T14:24:43.465Z,18.60
2022-09-15T14:27:12.661Z,18.60
2022-09-15T14:29:41.456Z,18.50
2022-09-15T14:32:14.552Z,18.40
2022-09-15T14:34:42.234Z,18.40
2022-09-15T14:37:15.025Z,18.20
2022-09-15T14:39:50.261Z,18.20
2022-09-15T14:42:29.434Z,18.10
2022-09-15T14:48:07.475Z,18.10
2022-09-15T14:50:37.523Z,18.10
2022-09-15T14:53:19.418Z,18.20
2022-09-15T14:56:27.485Z,18.30
2022-09-15T14:59:07.399Z,18.40
2022-09-15T15:01:34.198Z,18.40
2022-09-15T15:04:18.314Z,18.30
2022-09-15T15:07:11.269Z,18.30
2022-09-15T15:09:37.944Z,18.30
2022-09-15T15:12:19.177Z,18.20
2022-09-15T15:14:46.189Z,18.20
2022-09-15T15:17:32.104Z,18.20
2022-09-15T15:20:06.704Z,18.10
2022-09-15T15:22:36.850Z,18.10
2022-09-15T15:25:23.602Z,18.10
2022-09-15T15:27:57.582Z,18.00
2022-09-15T15:30:30.837Z,17.90
2022-09-15T15:33:21.073Z,17.90
2022-09-15T15:36:04.021Z,17.80
2022-09-15T15:38:41.726Z,17.70
2022-09-15T15:41:23.605Z,17.60
2022-09-15T15:44:08.195Z,17.60
2022-09-15T15:47:13.190Z,17.50
2022-09-15T15:50:02.368Z,17.50
2022-09-15T15:52:26.823Z,17.50
2022-09-15T15:54:55.873Z,17.50
2022-09-15T15:57:30.218Z,17.40
2022-09-15T15:59:59.076Z,17.30
2022-09-15T16:02:26.751Z,17.20
2022-09-15T16:04:55.729Z,17.20
2022-09-15T16:07:23.981Z,17.10
2022-09-15T16:09:54.914Z,17.00
2022-09-15T16:12:25.076Z,16.90
2022-09-15T16:14:54.532Z,16.90
2022-09-15T16:17:21.335Z,16.80
2022-09-15T16:19:48.159Z,16.80
2022-09-15T16:22:20.918Z,16.70
2022-09-15T16:24:49.756Z,16.70
2022-09-15T16:27:17.964Z,16.70
2022-09-15T16:29:45.159Z,16.60
2022-09-15T16:32:18.869Z,16.60
2022-09-15T16:34:46.113Z,16.50
2022-09-15T16:37:12.942Z,16.50
2022-09-15T16:39:39.667Z,16.50
2022-09-15T16:42:06.632Z,16.50
2022-09-15T16:44:33.498Z,16.50
2022-09-15T16:47:00.291Z,16.50
2022-09-15T16:49:29.358Z,16.40
2022-09-15T16:52:00.485Z,16.40
2022-09-15T16:54:29.475Z,16.40
2022-09-15T16:56:58.170Z,16.40
2022-09-15T16:59:27.135Z,16.40
2022-09-15T17:01:53.982Z,16.30
2022-09-15T17:04:20.905Z,16.30
2022-09-15T17:06:49.892Z,16.30
2022-09-15T17:09:16.631Z,16.30
2022-09-15T17:11:45.749Z,16.30
2022-09-15T17:14:16.429Z,16.30
2022-09-15T17:16:47.372Z,16.30
2022-09-15T17:19:14.132Z,16.20
2022-09-15T17:21:41.390Z,16.20
2022-09-15T17:24:08.966Z,16.10
2022-09-15T17:26:38.378Z,16.10
2022-09-15T17:29:05.242Z,16.10
2022-09-15T17:31:36.988Z,16.00
2022-09-15T17:34:03.828Z,16.00
2022-09-15T17:36:30.627Z,15.90
2022-09-15T17:38:59.694Z,15.90
2022-09-15T17:41:26.438Z,15.80
2022-09-15T17:43:57.967Z,15.80
2022-09-15T17:46:29.480Z,15.80
2022-09-15T17:48:56.274Z,15.80
2022-09-15T17:51:23.250Z,15.70
2022-09-15T17:53:50.106Z,15.70
2022-09-15T17:56:16.933Z,15.70
2022-09-15T17:58:46.370Z,15.70
2022-09-15T18:01:14.462Z,15.70
2022-09-15T18:03:45.591Z,15.70
2022-09-15T18:06:14.665Z,15.70
2022-09-15T18:08:44.056Z,15.70
2022-09-15T18:11:14.394Z,15.70
2022-09-15T18:13:41.249Z,15.60
2022-09-15T18:16:13.333Z,15.60
2022-09-15T18:18:41.023Z,15.60
2022-09-15T18:21:11.782Z,15.60
2022-09-15T18:23:39.147Z,15.60
2022-09-15T18:26:06.535Z,15.60
2022-09-15T18:28:33.600Z,15.50
2022-09-15T18:31:00.430Z,15.50
2022-09-15T18:33:29.925Z,15.50
2022-09-15T18:35:59.202Z,15.50
2022-09-15T18:38:26.261Z,15.50
2022-09-15T18:40:56.060Z,15.50
2022-09-15T18:43:28.197Z,15.40
2022-09-15T18:46:00.052Z,15.40
2022-09-15T18:48:27.714Z,15.40
2022-09-15T18:50:54.952Z,15.30
2022-09-15T18:53:25.123Z,15.30
2022-09-15T18:55:53.079Z,15.30
2022-09-15T18:58:20.061Z,15.30
2022-09-15T19:00:49.220Z,15.30
2022-09-15T19:03:18.557Z,15.30
2022-09-15T19:05:45.959Z,15.30
2022-09-15T19:08:12.815Z,15.30
2022-09-15T19:10:44.351Z,15.30
2022-09-15T19:13:15.581Z,15.40
2022-09-15T19:15:43.968Z,15.40
2022-09-15T19:18:11.756Z,15.40
2022-09-15T19:20:43.251Z,15.40
2022-09-15T19:23:10.583Z,15.30
2022-09-15T19:25:40.226Z,15.30
2022-09-15T19:28:07.109Z,15.30
2022-09-15T19:30:36.629Z,15.30
2022-09-15T19:33:04.795Z,15.30
2022-09-15T19:35:34.926Z,15.40
2022-09-15T19:38:01.978Z,15.30
2022-09-15T19:40:31.830Z,15.30
2022-09-15T19:42:58.644Z,15.30
2022-09-15T19:45:29.792Z,15.30
2022-09-15T19:47:59.180Z,15.30
2022-09-15T19:50:28.907Z,15.30
2022-09-15T19:52:59.477Z,15.30
2022-09-15T19:55:28.590Z,15.20
2022-09-15T19:58:00.944Z,15.30
2022-09-15T20:00:30.050Z,15.20
2022-09-15T20:02:56.865Z,15.20
2022-09-15T20:05:26.451Z,15.20
2022-09-15T20:07:58.069Z,15.20
2022-09-15T20:10:27.344Z,15.20
2022-09-15T20:12:58.686Z,15.20
2022-09-15T20:15:25.596Z,15.20
2022-09-15T20:17:52.704Z,15.20
2022-09-15T20:20:19.795Z,15.20
2022-09-15T20:22:46.722Z,15.20
2022-09-15T20:25:18.195Z,15.20
2022-09-15T20:27:49.227Z,15.20
2022-09-15T20:30:16.097Z,15.20
2022-09-15T20:32:48.426Z,15.10
2022-09-15T20:35:15.774Z,15.10
2022-09-15T20:37:42.597Z,15.00
2022-09-15T20:40:11.923Z,15.00
2022-09-15T20:42:38.735Z,15.00
2022-09-15T20:45:07.083Z,15.00
2022-09-15T20:47:34.074Z,15.00
2022-09-15T20:50:03.236Z,15.00
2022-09-15T20:52:35.916Z,15.00
2022-09-15T20:55:05.367Z,15.00
2022-09-15T20:57:32.344Z,15.00
2022-09-15T20:59:59.244Z,14.90
2022-09-15T21:02:26.127Z,14.90
2022-09-15T21:04:52.974Z,14.90
2022-09-15T21:07:19.699Z,14.90
2022-09-15T21:09:46.448Z,14.90
2022-09-15T21:12:16.375Z,14.80
2022-09-15T21:14:43.667Z,14.80
2022-09-15T21:17:11.103Z,14.80
2022-09-15T21:19:40.084Z,14.80
2022-09-15T21:22:06.848Z,14.80
2022-09-15T21:24:33.565Z,14.80
2022-09-15T21:27:18.903Z,14.80
2022-09-15T21:29:45.640Z,14.80
2022-09-15T21:32:12.422Z,14.80
2022-09-15T21:34:39.177Z,14.80
2022-09-15T21:37:08.310Z,14.80
2022-09-15T21:39:37.275Z,14.80
2022-09-15T21:42:05.274Z,14.80
2022-09-15T21:44:32.386Z,14.80
2022-09-15T21:47:01.492Z,14.80
2022-09-15T21:49:28.247Z,14.80
2022-09-15T21:51:54.984Z,14.80
2022-09-15T21:54:25.822Z,14.80
2022-09-15T21:56:55.328Z,14.80
2022-09-15T21:59:24.445Z,14.80
2022-09-15T22:01:51.590Z,14.70
2022-09-15T22:04:18.470Z,14.70
2022-09-15T22:06:50.051Z,14.70
2022-09-15T22:09:21.326Z,14.70
2022-09-15T22:11:51.135Z,14.70
2022-09-15T22:14:18.207Z,14.60
2022-09-15T22:16:45.075Z,14.60
2022-09-15T22:19:12.781Z,14.60
2022-09-15T22:21:41.816Z,14.60
2022-09-15T22:24:14.026Z,14.60
2022-09-15T22:26:43.456Z,14.60
2022-09-15T22:29:10.959Z,14.60
2022-09-15T22:31:41.977Z,14.50
2022-09-15T22:34:09.169Z,14.50
2022-09-15T22:36:35.978Z,14.50
2022-09-15T22:39:06.621Z,14.50
2022-09-15T22:41:38.596Z,14.40
2022-09-15T22:44:06.768Z,14.40
2022-09-15T22:46:33.887Z,14.40
2022-09-15T22:49:02.911Z,14.40
2022-09-15T22:51:29.834Z,14.40
2022-09-15T22:54:03.469Z,14.40
2022-09-15T22:56:30.510Z,14.40
2022-09-15T22:58:57.468Z,14.40
2022-09-15T23:01:30.635Z,14.30
2022-09-15T23:04:00.220Z,14.30
2022-09-15T23:06:32.189Z,14.30
2022-09-15T23:09:01.553Z,14.30
2022-09-15T23:11:29.593Z,14.40
2022-09-15T23:13:56.557Z,14.30
2022-09-15T23:16:25.346Z,14.30
2022-09-15T23:18:53.581Z,14.30
2022-09-15T23:21:20.965Z,14.30
2022-09-15T23:23:49.154Z,14.30
2022-09-15T23:26:20.805Z,14.30
2022-09-15T23:28:52.612Z,14.30
2022-09-15T23:31:22.201Z,14.30
2022-09-15T23:33:51.755Z,14.20
2022-09-15T23:36:19.618Z,14.20
2022-09-15T23:38:48.205Z,14.20
2022-09-15T23:41:18.186Z,14.10
2022-09-15T23:43:45.872Z,14.10
2022-09-15T23:46:13.440Z,14.10
2022-09-15T23:48:40.303Z,14.10
2022-09-15T23:51:09.331Z,14.10
2022-09-15T23:53:38.148Z,14.10
2022-09-15T23:56:05.468Z,14.10
2022-09-15T23:58:32.249Z,14.00
